createdAt,value
2022-11-24T00:09:24.807Z,95
2022-11-24T00:19:25.378Z,96
2022-11-24T00:29:26.213Z,96
2022-11-24T00:39:27.115Z,96
2022-11-24T00:49:27.750Z,96
2022-11-24T00:59:28.157Z,96
2022-11-24T01:09:28.256Z,96
2022-11-24T01:19:29.194Z,95
2022-11-24T01:29:30.020Z,95
2022-11-24T01:49:30.702Z,94
2022-11-24T01:59:31.159Z,94
2022-11-24T02:09:31.979Z,95
2022-11-24T02:19:32.336Z,94
2022-11-24T02:29:32.518Z,94
2022-11-24T02:39:33.537Z,94
2022-11-24T02:49:34.271Z,94
2022-11-24T02:59:34.669Z,94
2022-11-24T03:09:35.348Z,94
2022-11-24T03:19:35.396Z,94
2022-11-24T03:29:36.455Z,94
2022-11-24T03:39:36.475Z,94
2022-11-24T03:49:37.134Z,94
2022-11-24T03:59:37.299Z,95
2022-11-24T04:09:37.323Z,94
2022-11-24T04:19:37.556Z,94
2022-11-24T04:29:38.205Z,94
2022-11-24T04:39:38.410Z,94
2022-11-24T04:49:38.674Z,95
2022-11-24T04:59:39.212Z,97
2022-11-24T05:09:58.374Z,98
2022-11-24T05:19:39.594Z,98
2022-11-24T05:29:40.118Z,97
2022-11-24T05:39:40.286Z,96
2022-11-24T05:49:40.987Z,96
2022-11-24T05:59:41.885Z,94
2022-11-24T06:09:42.178Z,95
2022-11-24T06:19:42.471Z,95
2022-11-24T06:29:43.130Z,95
2022-11-24T06:39:43.607Z,95
2022-11-24T06:49:43.925Z,94
2022-11-24T06:59:44.254Z,94
2022-11-24T07:09:44.660Z,94
2022-11-24T07:29:45.124Z,93
2022-11-24T07:49:46.162Z,92
2022-11-24T07:59:46.320Z,91
2022-11-24T08:19:47.798Z,93
2022-11-24T08:29:48.350Z,93
2022-11-24T08:39:48.748Z,93
2022-11-24T08:49:49.345Z,93
2022-11-24T08:59:50.192Z,91
2022-11-24T09:09:51.142Z,92
2022-11-24T09:19:51.671Z,92
2022-11-24T09:29:52.042Z,94
2022-11-24T09:39:52.341Z,94
2022-11-24T09:49:52.807Z,94
2022-11-24T09:59:53.709Z,94
2022-11-24T10:09:54.339Z,94
2022-11-24T10:19:55.239Z,93
2022-11-24T10:29:56.158Z,94
2022-11-24T10:39:59.999Z,96
2022-11-24T10:49:56.706Z,95
2022-11-24T10:59:57.082Z,95
2022-11-24T11:09:57.991Z,94
2022-11-24T11:20:01.929Z,92
2022-11-24T11:49:59.807Z,90
2022-11-24T12:00:00.591Z,89
2022-11-24T12:10:01.417Z,89
2022-11-24T13:50:07.322Z,88
2022-11-24T14:00:07.415Z,88
2022-11-24T14:10:07.583Z,88
2022-11-24T14:20:07.626Z,88
2022-11-24T14:30:08.215Z,88
2022-11-24T15:10:09.866Z,88
2022-11-24T15:30:11.587Z,89
2022-11-24T15:40:12.363Z,90
2022-11-24T15:50:12.709Z,91
2022-11-24T16:20:13.696Z,92
2022-11-24T16:30:14.269Z,93
2022-11-24T16:40:20.523Z,93
2022-11-24T16:50:20.610Z,93
2022-11-24T17:00:21.029Z,94
2022-11-24T17:10:21.340Z,94
2022-11-24T17:20:21.856Z,93
2022-11-24T17:40:28.167Z,92
2022-11-24T17:50:25.910Z,92
2022-11-24T18:00:24.611Z,92
2022-11-24T18:20:25.362Z,91
2022-11-24T18:30:25.301Z,91
2022-11-24T18:40:25.981Z,91
2022-11-24T18:50:26.607Z,91
2022-11-24T19:00:27.534Z,91
2022-11-24T19:10:27.666Z,91
2022-11-24T19:30:28.884Z,91
2022-11-24T19:40:29.252Z,91
2022-11-24T19:50:29.518Z,90
2022-11-24T20:00:32.029Z,90
2022-11-24T20:20:30.216Z,90
2022-11-24T20:30:31.266Z,90
2022-11-24T20:40:31.533Z,91
2022-11-24T20:50:31.917Z,91
2022-11-24T21:10:33.311Z,91
2022-11-24T21:20:33.411Z,91
2022-11-24T21:30:34.096Z,91
2022-11-24T21:40:34.434Z,91
2022-11-24T21:50:35.084Z,91
2022-11-24T22:00:35.592Z,91
2022-11-24T22:10:36.557Z,91
2022-11-24T22:20:36.853Z,92
2022-11-24T22:30:37.170Z,92
2022-11-24T22:40:37.479Z,92
2022-11-24T22:50:38.023Z,93
2022-11-24T23:00:38.597Z,93
2022-11-24T23:10:39.037Z,94
2022-11-24T23:20:39.684Z,93
2022-11-24T23:30:40.607Z,93
2022-11-24T23:40:41.537Z,93
2022-11-24T23:50:42.449Z,93
